Main page
METAR-TAF:

METAR-TAF

Airports :

Cap. FAP Pedro Canga Rodríguez Airport

Tumbes, Peru

latitude: 03-33S, longitude: 080-24W, elevation: 25 m

Current weather observation

The report was made 10 minutes ago, at 00:00 UTC
Wind 4 kt from the West
Temperature 25°C
Humidity 83%
Pressure 1010 hPa
Visibility 10 km or more
Few clouds at a height of 2500 ft

METAR: SPME 240000Z 26004KT 9999 FEW025 25/22 Q1010 RMK BIRD HAZARD RWY 32/14 PP000

Time: 19:10 (00:10 UTC)

Forecast

The report was made 1 hour and 10 minutes ago, at 23:00 UTC
Forecast valid from 24 at 00 UTC to 24 at 24 UTC
Wind 8 kt from the Northwest
Visibility 10 km or more
Few clouds at a height of 2000 ft
Temporary
from 24 at 02 UTC to 24 at 06 UTC
Broken clouds at a height of 1500 ft
Becoming
from 24 at 03 UTC to 24 at 05 UTC
Wind 4 kt from the West/Southwest

TAF: SPME 232300Z 2400/2424 31008KT 9999 FEW020 TX28/2419Z TN22/2411Z TEMPO 2402/2406 BKN015 BECMG 2403/2405 25004KT

Weather observations and forecasts of more than 4000 airports (METAR and TAF reports).

The available stations are represented by yellow and red dots on the map.

Hover mouse over dot to see the name of the station.

Then click to see weather observations and forecasts.

To change the map : click on the green buttons with a black cross to zoom in, on the green button with a dash to zoom out, or on the green arrows for adjacent maps.


METAR-TAF: